Blue Ridge Observed Data For Previous 48 Hours

Caption
Day and Hour Reservoir Elevation (behind dam)* Tailwater Elevation (below dam)* Average Hourly Discharge*
12/16/2017 2 AM EST 1,668.07 1,540.57 200
12/16/2017 3 AM EST 1,668.08 1,540.57 200
12/16/2017 4 AM EST 1,668.08 1,540.57 200
12/16/2017 5 AM EST 1,668.06 1,540.57 200
12/16/2017 6 AM EST 1,668.06 1,540.57 200
12/16/2017 7 AM EST 1,668.09 1,540.53 203
12/16/2017 8 AM EST 1,668.03 1,543.38 1,681
12/16/2017 9 AM EST 1,668.01 1,543.47 1,735
12/16/2017 10 AM EST 1,667.97 1,543.48 1,738
12/16/2017 11 AM EST 1,667.96 1,540.73 340
12/16/2017 12 PM EST 1,667.96 1,540.57 200
12/16/2017 1 PM EST 1,667.96 1,540.57 200
12/16/2017 2 PM EST 1,667.91 1,540.57 200
12/16/2017 3 PM EST 1,667.89 1,540.57 200
12/16/2017 4 PM EST 1,667.94 1,540.57 200
12/16/2017 5 PM EST 1,667.99 1,540.57 200
12/16/2017 6 PM EST 1,668.00 1,540.57 200
12/16/2017 7 PM EST 1,668.01 1,540.57 200
12/16/2017 8 PM EST 1,668.02 1,540.57 200
12/16/2017 9 PM EST 1,668.03 1,540.57 200
12/16/2017 10 PM EST 1,668.02 1,540.57 200
12/16/2017 11 PM EST 1,668.01 1,540.57 200
12/17/2017 12 AM EST 1,668.05 1,540.57 200
12/17/2017 1 AM EST 1,667.99 1,540.57 200
12/17/2017 2 AM EST 1,668.02 1,540.57 200
12/17/2017 3 AM EST 1,668.02 1,540.57 200
12/17/2017 4 AM EST 1,668.02 1,540.57 200
12/17/2017 5 AM EST 1,668.07 1,540.57 200
12/17/2017 6 AM EST 1,668.07 1,540.58 200
12/17/2017 7 AM EST 1,668.08 1,540.57 200
12/17/2017 8 AM EST 1,668.08 1,540.54 203
12/17/2017 9 AM EST 1,668.01 1,543.38 1,675
12/17/2017 10 AM EST 1,668.01 1,543.46 1,729
12/17/2017 11 AM EST 1,667.89 1,543.45 1,730
12/17/2017 12 PM EST 1,667.95 1,540.71 305
12/17/2017 1 PM EST 1,667.96 1,540.58 200
12/17/2017 2 PM EST 1,667.96 1,540.57 200
12/17/2017 3 PM EST 1,667.96 1,540.57 200
12/17/2017 4 PM EST 1,667.96 1,540.57 200
12/17/2017 5 PM EST 1,667.99 1,540.57 200
12/17/2017 6 PM EST 1,667.99 1,540.57 200
12/17/2017 7 PM EST 1,668.01 1,540.57 200
12/17/2017 8 PM EST 1,668.01 1,540.57 200
12/17/2017 9 PM EST 1,667.97 1,540.57 200
12/17/2017 10 PM EST 1,667.96 1,540.57 200
12/17/2017 11 PM EST 1,668.03 1,540.57 200
12/18/2017 12 AM EST 1,668.05 1,540.57 200
12/18/2017 1 AM EST 1,668.05 1,540.57 200
12/18/2017 2 AM EST 1,668.07 1,540.57 200
12/18/2017 3 AM EST 1,668.06 1,540.57 200
12/18/2017 4 AM EST 1,668.09 1,540.57 200
12/18/2017 5 AM EST 1,668.08 1,540.57 200
12/18/2017 6 AM EST 1,668.09 1,540.57 200
12/18/2017 7 AM EST 1,668.08 1,540.53 205
12/18/2017 8 AM EST 1,668.03 1,543.39 1,687
12/18/2017 9 AM EST 1,668.00 1,543.51 1,758
12/18/2017 10 AM EST 1,667.94 1,543.49 1,748
12/18/2017 11 AM EST 1,667.91 1,543.48 1,747

Elevations are in feet above sea level. Discharges are in cubic feet per second and are reported at the end of the hour.